sensor_id;sensor_type;location;lat;lon;timestamp;noise_LAeq;noise_LA_min;noise_LA_max;noise_LA01;noise_LA95
60503;Laerm;51448;51.660;5.824;2022-10-31T00:01:32;44.87;28.39;55.81;;
60503;Laerm;51448;51.660;5.824;2022-10-31T00:04:00;44.13;28.64;55.20;;
60503;Laerm;51448;51.660;5.824;2022-10-31T00:06:28;43.42;28.40;54.80;;
60503;Laerm;51448;51.660;5.824;2022-10-31T00:08:59;44.11;27.93;55.00;;
60503;Laerm;51448;51.660;5.824;2022-10-31T00:11:27;43.65;28.23;54.64;;
60503;Laerm;51448;51.660;5.824;2022-10-31T00:13:55;44.52;28.62;55.17;;
60503;Laerm;51448;51.660;5.824;2022-10-31T00:16:25;43.91;28.30;54.92;;
60503;Laerm;51448;51.660;5.824;2022-10-31T00:19:04;43.09;28.35;60.19;;
60503;Laerm;51448;51.660;5.824;2022-10-31T00:21:34;43.78;28.24;55.40;;
60503;Laerm;51448;51.660;5.824;2022-10-31T00:24:02;43.87;28.54;55.32;;
60503;Laerm;51448;51.660;5.824;2022-10-31T00:26:30;45.38;28.29;56.64;;
60503;Laerm;51448;51.660;5.824;2022-10-31T00:28:59;43.42;28.29;54.97;;
60503;Laerm;51448;51.660;5.824;2022-10-31T00:31:27;44.07;28.14;56.27;;
60503;Laerm;51448;51.660;5.824;2022-10-31T00:33:55;43.48;28.14;54.59;;
60503;Laerm;51448;51.660;5.824;2022-10-31T00:36:22;44.96;28.22;55.87;;
60503;Laerm;51448;51.660;5.824;2022-10-31T00:38:50;44.84;28.20;55.93;;
60503;Laerm;51448;51.660;5.824;2022-10-31T00:41:17;44.20;28.17;55.40;;
60503;Laerm;51448;51.660;5.824;2022-10-31T00:43:45;45.25;28.43;56.72;;
60503;Laerm;51448;51.660;5.824;2022-10-31T00:46:13;43.98;28.19;55.04;;
60503;Laerm;51448;51.660;5.824;2022-10-31T00:48:41;44.89;28.42;55.95;;
60503;Laerm;51448;51.660;5.824;2022-10-31T00:51:09;43.50;27.97;54.47;;
60503;Laerm;51448;51.660;5.824;2022-10-31T00:53:37;44.59;28.16;55.54;;
60503;Laerm;51448;51.660;5.824;2022-10-31T00:56:05;45.39;28.14;56.43;;
60503;Laerm;51448;51.660;5.824;2022-10-31T00:58:33;44.10;28.36;54.92;;
60503;Laerm;51448;51.660;5.824;2022-10-31T01:01:01;44.41;28.25;56.67;;
60503;Laerm;51448;51.660;5.824;2022-10-31T01:03:33;43.88;28.28;55.26;;
60503;Laerm;51448;51.660;5.824;2022-10-31T01:06:12;43.94;28.26;55.81;;
60503;Laerm;51448;51.660;5.824;2022-10-31T01:08:40;44.46;28.27;56.43;;
60503;Laerm;51448;51.660;5.824;2022-10-31T01:11:19;43.70;28.50;55.43;;
60503;Laerm;51448;51.660;5.824;2022-10-31T01:13:49;44.60;28.42;62.46;;
60503;Laerm;51448;51.660;5.824;2022-10-31T01:16:20;45.80;28.86;57.23;;
60503;Laerm;51448;51.660;5.824;2022-10-31T01:18:51;46.12;28.64;57.46;;
60503;Laerm;51448;51.660;5.824;2022-10-31T01:21:26;46.05;28.13;57.05;;
60503;Laerm;51448;51.660;5.824;2022-10-31T01:23:58;45.49;28.83;56.86;;
60503;Laerm;51448;51.660;5.824;2022-10-31T01:26:29;45.94;29.03;57.46;;
60503;Laerm;51448;51.660;5.824;2022-10-31T01:29:06;45.08;28.58;57.35;;
60503;Laerm;51448;51.660;5.824;2022-10-31T01:31:39;45.70;28.22;57.18;;
60503;Laerm;51448;51.660;5.824;2022-10-31T01:34:07;45.88;28.29;57.40;;
60503;Laerm;51448;51.660;5.824;2022-10-31T01:36:37;46.00;29.09;57.61;;
60503;Laerm;51448;51.660;5.824;2022-10-31T01:39:12;45.05;28.51;57.07;;
60503;Laerm;51448;51.660;5.824;2022-10-31T01:41:44;46.43;28.02;59.48;;
60503;Laerm;51448;51.660;5.824;2022-10-31T01:46:52;45.52;28.20;56.73;;
60503;Laerm;51448;51.660;5.824;2022-10-31T01:49:31;45.91;28.39;56.93;;
60503;Laerm;51448;51.660;5.824;2022-10-31T01:52:04;47.39;28.27;58.07;;
60503;Laerm;51448;51.660;5.824;2022-10-31T01:54:40;45.67;28.17;57.03;;
60503;Laerm;51448;51.660;5.824;2022-10-31T01:57:12;45.91;28.09;57.22;;
60503;Laerm;51448;51.660;5.824;2022-10-31T01:59:48;44.78;28.33;57.04;;
60503;Laerm;51448;51.660;5.824;2022-10-31T02:02:18;45.02;28.00;56.68;;
60503;Laerm;51448;51.660;5.824;2022-10-31T02:04:48;44.89;28.15;56.96;;
60503;Laerm;51448;51.660;5.824;2022-10-31T02:07:25;45.20;28.12;61.37;;
60503;Laerm;51448;51.660;5.824;2022-10-31T02:10:00;45.48;28.31;56.46;;
60503;Laerm;51448;51.660;5.824;2022-10-31T02:12:30;45.76;28.36;57.02;;
60503;Laerm;51448;51.660;5.824;2022-10-31T02:15:00;45.94;28.46;57.14;;
60503;Laerm;51448;51.660;5.824;2022-10-31T02:17:30;45.13;28.27;56.91;;
60503;Laerm;51448;51.660;5.824;2022-10-31T02:20:20;45.04;28.14;57.16;;
60503;Laerm;51448;51.660;5.824;2022-10-31T02:34:50;44.17;28.46;56.80;;
60503;Laerm;51448;51.660;5.824;2022-10-31T02:40:27;44.04;28.49;56.59;;
60503;Laerm;51448;51.660;5.824;2022-10-31T02:43:33;43.61;28.62;56.64;;
60503;Laerm;51448;51.660;5.824;2022-10-31T02:46:27;44.83;28.83;56.66;;
60503;Laerm;51448;51.660;5.824;2022-10-31T02:49:09;45.37;28.60;56.74;;
60503;Laerm;51448;51.660;5.824;2022-10-31T02:51:39;44.99;28.48;56.68;;
60503;Laerm;51448;51.660;5.824;2022-10-31T02:54:19;47.26;28.96;56.54;;
60503;Laerm;51448;51.660;5.824;2022-10-31T02:57:01;45.07;29.37;56.81;;
60503;Laerm;51448;51.660;5.824;2022-10-31T02:59:35;46.15;28.58;56.82;;
60503;Laerm;51448;51.660;5.824;2022-10-31T03:02:11;45.58;28.30;56.89;;
60503;Laerm;51448;51.660;5.824;2022-10-31T03:05:24;43.99;28.17;56.58;;
60503;Laerm;51448;51.660;5.824;2022-10-31T03:08:50;43.15;28.85;56.83;;
60503;Laerm;51448;51.660;5.824;2022-10-31T03:11:29;44.48;28.28;56.22;;
60503;Laerm;51448;51.660;5.824;2022-10-31T03:14:19;44.38;28.17;56.71;;
60503;Laerm;51448;51.660;5.824;2022-10-31T03:16:57;44.35;28.08;60.70;;
60503;Laerm;51448;51.660;5.824;2022-10-31T03:19:33;46.95;28.21;57.87;;
60503;Laerm;51448;51.660;5.824;2022-10-31T03:22:12;43.38;28.31;56.27;;
60503;Laerm;51448;51.660;5.824;2022-10-31T03:24:46;44.46;28.21;56.40;;
60503;Laerm;51448;51.660;5.824;2022-10-31T03:27:22;44.89;28.83;56.52;;
60503;Laerm;51448;51.660;5.824;2022-10-31T03:29:55;44.09;28.43;56.39;;
60503;Laerm;51448;51.660;5.824;2022-10-31T03:32:34;42.77;28.27;55.75;;
60503;Laerm;51448;51.660;5.824;2022-10-31T03:35:08;44.72;28.58;56.41;;
60503;Laerm;51448;51.660;5.824;2022-10-31T03:37:40;44.21;28.63;56.79;;
60503;Laerm;51448;51.660;5.824;2022-10-31T03:40:16;43.42;28.26;56.71;;
60503;Laerm;51448;51.660;5.824;2022-10-31T03:43:05;47.88;28.59;65.22;;
60503;Laerm;51448;51.660;5.824;2022-10-31T03:45:41;43.61;29.07;56.37;;
60503;Laerm;51448;51.660;5.824;2022-10-31T03:48:14;43.45;28.59;56.70;;
60503;Laerm;51448;51.660;5.824;2022-10-31T03:50:58;34.23;28.42;46.46;;
60503;Laerm;51448;51.660;5.824;2022-10-31T03:53:34;42.15;29.23;54.12;;
60503;Laerm;51448;51.660;5.824;2022-10-31T03:59:07;45.80;29.54;59.69;;
60503;Laerm;51448;51.660;5.824;2022-10-31T04:01:43;46.66;29.51;59.74;;
60503;Laerm;51448;51.660;5.824;2022-10-31T04:04:13;42.08;28.99;54.19;;
60503;Laerm;51448;51.660;5.824;2022-10-31T04:06:45;44.30;29.55;56.65;;
60503;Laerm;51448;51.660;5.824;2022-10-31T04:09:15;42.98;29.11;57.39;;
60503;Laerm;51448;51.660;5.824;2022-10-31T04:11:53;41.76;28.96;53.59;;
60503;Laerm;51448;51.660;5.824;2022-10-31T04:14:48;43.61;29.19;56.48;;
60503;Laerm;51448;51.660;5.824;2022-10-31T04:17:21;44.04;29.41;54.79;;
60503;Laerm;51448;51.660;5.824;2022-10-31T04:19:50;44.27;30.41;56.43;;
60503;Laerm;51448;51.660;5.824;2022-10-31T04:22:18;43.65;29.00;56.17;;
60503;Laerm;51448;51.660;5.824;2022-10-31T04:24:45;43.94;29.39;56.60;;
60503;Laerm;51448;51.660;5.824;2022-10-31T04:27:15;44.25;29.29;56.33;;
60503;Laerm;51448;51.660;5.824;2022-10-31T04:29:42;46.86;29.12;59.49;;
60503;Laerm;51448;51.660;5.824;2022-10-31T04:32:15;47.25;29.25;60.26;;
60503;Laerm;51448;51.660;5.824;2022-10-31T04:34:42;45.94;29.90;57.56;;
60503;Laerm;51448;51.660;5.824;2022-10-31T04:37:10;45.17;29.47;56.13;;
60503;Laerm;51448;51.660;5.824;2022-10-31T04:39:38;42.91;29.57;55.60;;
60503;Laerm;51448;51.660;5.824;2022-10-31T04:42:24;47.68;30.52;63.39;;
60503;Laerm;51448;51.660;5.824;2022-10-31T04:44:52;44.16;30.03;56.50;;
60503;Laerm;51448;51.660;5.824;2022-10-31T04:47:19;48.81;31.21;62.39;;
60503;Laerm;51448;51.660;5.824;2022-10-31T04:49:47;48.29;30.48;61.82;;
60503;Laerm;51448;51.660;5.824;2022-10-31T04:52:14;46.30;29.38;59.11;;
60503;Laerm;51448;51.660;5.824;2022-10-31T04:54:42;41.55;29.49;52.90;;
60503;Laerm;51448;51.660;5.824;2022-10-31T04:57:45;43.01;29.62;55.35;;
60503;Laerm;51448;51.660;5.824;2022-10-31T05:00:19;46.58;29.95;59.52;;
60503;Laerm;51448;51.660;5.824;2022-10-31T05:02:58;46.10;30.27;60.92;;
60503;Laerm;51448;51.660;5.824;2022-10-31T05:05:30;47.23;31.06;58.82;;
60503;Laerm;51448;51.660;5.824;2022-10-31T05:08:00;41.92;30.36;52.72;;
60503;Laerm;51448;51.660;5.824;2022-10-31T05:10:30;49.64;30.70;64.07;;
60503;Laerm;51448;51.660;5.824;2022-10-31T05:13:02;49.06;31.06;61.71;;
60503;Laerm;51448;51.660;5.824;2022-10-31T05:15:50;47.46;33.54;59.83;;
60503;Laerm;51448;51.660;5.824;2022-10-31T05:18:36;48.36;32.08;60.58;;
60503;Laerm;51448;51.660;5.824;2022-10-31T05:21:32;50.07;32.51;67.79;;
60503;Laerm;51448;51.660;5.824;2022-10-31T05:24:02;47.17;30.71;62.37;;
60503;Laerm;51448;51.660;5.824;2022-10-31T05:26:31;47.84;31.56;61.87;;
60503;Laerm;51448;51.660;5.824;2022-10-31T05:29:01;49.12;30.32;61.07;;
60503;Laerm;51448;51.660;5.824;2022-10-31T05:31:29;49.81;32.68;62.18;;
60503;Laerm;51448;51.660;5.824;2022-10-31T05:33:56;45.76;32.18;62.48;;
60503;Laerm;51448;51.660;5.824;2022-10-31T05:36:42;57.28;32.58;84.19;;
60503;Laerm;51448;51.660;5.824;2022-10-31T05:39:15;49.70;34.23;62.23;;
60503;Laerm;51448;51.660;5.824;2022-10-31T05:41:47;50.51;34.45;62.68;;
60503;Laerm;51448;51.660;5.824;2022-10-31T05:44:25;51.65;34.53;67.84;;
60503;Laerm;51448;51.660;5.824;2022-10-31T05:47:11;50.75;35.12;65.10;;
60503;Laerm;51448;51.660;5.824;2022-10-31T05:49:57;51.48;33.06;74.56;;
60503;Laerm;51448;51.660;5.824;2022-10-31T05:52:46;47.93;33.70;62.02;;
60503;Laerm;51448;51.660;5.824;2022-10-31T05:55:26;46.81;34.94;64.62;;
60503;Laerm;51448;51.660;5.824;2022-10-31T05:58:11;49.43;36.97;62.35;;
60503;Laerm;51448;51.660;5.824;2022-10-31T06:00:43;54.25;39.23;66.84;;
60503;Laerm;51448;51.660;5.824;2022-10-31T06:03:12;51.58;36.44;62.69;;
60503;Laerm;51448;51.660;5.824;2022-10-31T06:05:46;54.25;38.13;64.20;;
60503;Laerm;51448;51.660;5.824;2022-10-31T06:08:21;54.41;35.90;82.46;;
60503;Laerm;51448;51.660;5.824;2022-10-31T06:10:49;50.24;37.27;59.61;;
60503;Laerm;51448;51.660;5.824;2022-10-31T06:13:23;51.79;36.19;62.38;;
60503;Laerm;51448;51.660;5.824;2022-10-31T06:15:58;49.20;36.45;61.29;;
60503;Laerm;51448;51.660;5.824;2022-10-31T06:18:33;48.67;35.91;61.66;;
60503;Laerm;51448;51.660;5.824;2022-10-31T06:21:01;49.99;35.40;66.24;;
60503;Laerm;51448;51.660;5.824;2022-10-31T06:23:28;67.06;36.54;90.39;;
60503;Laerm;51448;51.660;5.824;2022-10-31T06:26:15;49.18;36.25;66.73;;
60503;Laerm;51448;51.660;5.824;2022-10-31T06:28:43;49.19;38.05;68.34;;
60503;Laerm;51448;51.660;5.824;2022-10-31T06:31:23;52.50;35.85;63.20;;
60503;Laerm;51448;51.660;5.824;2022-10-31T06:33:50;60.84;36.72;79.31;;
60503;Laerm;51448;51.660;5.824;2022-10-31T06:36:18;52.69;36.81;67.93;;
60503;Laerm;51448;51.660;5.824;2022-10-31T06:38:45;49.40;36.20;67.83;;
60503;Laerm;51448;51.660;5.824;2022-10-31T06:41:14;52.67;37.44;61.31;;
60503;Laerm;51448;51.660;5.824;2022-10-31T06:43:46;52.95;37.32;63.15;;
60503;Laerm;51448;51.660;5.824;2022-10-31T06:46:30;53.46;38.73;73.58;;
60503;Laerm;51448;51.660;5.824;2022-10-31T06:49:07;60.06;38.35;85.03;;
60503;Laerm;51448;51.660;5.824;2022-10-31T06:51:42;52.02;36.80;69.20;;
60503;Laerm;51448;51.660;5.824;2022-10-31T06:54:09;52.99;37.02;70.72;;
60503;Laerm;51448;51.660;5.824;2022-10-31T06:56:37;48.95;34.71;62.76;;
60503;Laerm;51448;51.660;5.824;2022-10-31T06:59:04;49.22;36.02;58.17;;
60503;Laerm;51448;51.660;5.824;2022-10-31T07:01:52;50.33;35.92;59.92;;
60503;Laerm;51448;51.660;5.824;2022-10-31T07:04:20;47.48;34.69;57.93;;
60503;Laerm;51448;51.660;5.824;2022-10-31T07:06:51;49.89;34.32;60.48;;
60503;Laerm;51448;51.660;5.824;2022-10-31T07:09:20;50.92;36.12;67.31;;
60503;Laerm;51448;51.660;5.824;2022-10-31T07:11:47;51.26;36.19;61.75;;
60503;Laerm;51448;51.660;5.824;2022-10-31T07:14:15;49.83;36.56;59.51;;
60503;Laerm;51448;51.660;5.824;2022-10-31T07:16:42;51.25;38.24;62.79;;
60503;Laerm;51448;51.660;5.824;2022-10-31T07:19:13;49.24;37.82;61.53;;
60503;Laerm;51448;51.660;5.824;2022-10-31T07:21:40;57.31;35.79;83.26;;
60503;Laerm;51448;51.660;5.824;2022-10-31T07:24:09;48.30;34.52;68.90;;
60503;Laerm;51448;51.660;5.824;2022-10-31T07:26:43;48.64;36.52;59.43;;
60503;Laerm;51448;51.660;5.824;2022-10-31T07:29:14;47.78;35.34;66.23;;
60503;Laerm;51448;51.660;5.824;2022-10-31T07:31:41;50.79;36.50;73.24;;
60503;Laerm;51448;51.660;5.824;2022-10-31T07:34:17;48.19;35.30;59.79;;
60503;Laerm;51448;51.660;5.824;2022-10-31T07:37:04;50.67;36.67;69.09;;
60503;Laerm;51448;51.660;5.824;2022-10-31T07:39:32;47.40;36.09;58.20;;
60503;Laerm;51448;51.660;5.824;2022-10-31T07:42:00;50.77;36.32;67.28;;
60503;Laerm;51448;51.660;5.824;2022-10-31T07:44:28;47.21;34.36;73.70;;
60503;Laerm;51448;51.660;5.824;2022-10-31T07:47:14;52.44;36.29;79.16;;
60503;Laerm;51448;51.660;5.824;2022-10-31T07:50:00;54.16;36.41;75.03;;
60503;Laerm;51448;51.660;5.824;2022-10-31T07:52:48;51.38;37.43;73.95;;
60503;Laerm;51448;51.660;5.824;2022-10-31T07:55:43;50.68;36.73;62.68;;
60503;Laerm;51448;51.660;5.824;2022-10-31T07:58:15;49.68;36.68;60.47;;
60503;Laerm;51448;51.660;5.824;2022-10-31T08:00:45;51.00;36.68;62.57;;
60503;Laerm;51448;51.660;5.824;2022-10-31T08:03:18;50.30;34.07;65.32;;
60503;Laerm;51448;51.660;5.824;2022-10-31T08:06:05;50.36;35.07;70.04;;
60503;Laerm;51448;51.660;5.824;2022-10-31T08:08:52;49.33;34.51;66.22;;
60503;Laerm;51448;51.660;5.824;2022-10-31T08:11:20;51.06;35.31;69.29;;
60503;Laerm;51448;51.660;5.824;2022-10-31T08:13:47;49.35;34.84;65.45;;
60503;Laerm;51448;51.660;5.824;2022-10-31T08:16:15;50.72;35.84;70.18;;
60503;Laerm;51448;51.660;5.824;2022-10-31T08:18:51;48.22;35.13;61.73;;
60503;Laerm;51448;51.660;5.824;2022-10-31T08:21:21;52.88;36.75;79.91;;
60503;Laerm;51448;51.660;5.824;2022-10-31T08:23:49;56.12;35.67;82.64;;
60503;Laerm;51448;51.660;5.824;2022-10-31T08:26:19;49.60;35.04;61.09;;
60503;Laerm;51448;51.660;5.824;2022-10-31T08:28:47;46.51;35.17;62.32;;
60503;Laerm;51448;51.660;5.824;2022-10-31T08:31:19;43.85;33.93;59.69;;
60503;Laerm;51448;51.660;5.824;2022-10-31T08:33:46;49.64;32.73;62.58;;
60503;Laerm;51448;51.660;5.824;2022-10-31T08:36:20;61.89;32.89;89.29;;
60503;Laerm;51448;51.660;5.824;2022-10-31T08:39:04;48.55;32.91;67.70;;
60503;Laerm;51448;51.660;5.824;2022-10-31T08:41:31;51.24;33.24;73.21;;
60503;Laerm;51448;51.660;5.824;2022-10-31T08:44:00;48.32;33.39;68.50;;
60503;Laerm;51448;51.660;5.824;2022-10-31T08:46:27;49.60;33.93;58.82;;
60503;Laerm;51448;51.660;5.824;2022-10-31T08:48:55;51.97;32.25;78.53;;
60503;Laerm;51448;51.660;5.824;2022-10-31T08:51:23;72.01;34.30;84.90;;
60503;Laerm;51448;51.660;5.824;2022-10-31T08:53:53;51.18;33.00;64.93;;
60503;Laerm;51448;51.660;5.824;2022-10-31T08:56:41;45.98;31.06;57.01;;
60503;Laerm;51448;51.660;5.824;2022-10-31T08:59:26;53.89;32.23;78.18;;
60503;Laerm;51448;51.660;5.824;2022-10-31T09:02:15;49.34;30.77;67.21;;
60503;Laerm;51448;51.660;5.824;2022-10-31T09:04:43;49.81;31.69;68.98;;
60503;Laerm;51448;51.660;5.824;2022-10-31T09:07:10;50.60;33.04;61.11;;
60503;Laerm;51448;51.660;5.824;2022-10-31T09:09:54;47.45;32.48;58.24;;
60503;Laerm;51448;51.660;5.824;2022-10-31T09:12:23;49.83;32.26;63.39;;
60503;Laerm;51448;51.660;5.824;2022-10-31T09:15:11;50.52;33.66;67.32;;
60503;Laerm;51448;51.660;5.824;2022-10-31T09:17:53;57.26;34.51;82.57;;
60503;Laerm;51448;51.660;5.824;2022-10-31T09:20:28;47.78;33.52;63.65;;
60503;Laerm;51448;51.660;5.824;2022-10-31T09:23:00;50.67;33.98;72.80;;
60503;Laerm;51448;51.660;5.824;2022-10-31T09:25:29;53.65;46.71;63.18;;
60503;Laerm;51448;51.660;5.824;2022-10-31T09:28:23;51.40;38.92;68.01;;
60503;Laerm;51448;51.660;5.824;2022-10-31T09:30:53;57.35;34.48;76.76;;
60503;Laerm;51448;51.660;5.824;2022-10-31T09:33:43;50.52;33.38;68.37;;
60503;Laerm;51448;51.660;5.824;2022-10-31T09:36:30;56.21;46.24;68.94;;
60503;Laerm;51448;51.660;5.824;2022-10-31T09:38:58;54.08;35.66;67.33;;
60503;Laerm;51448;51.660;5.824;2022-10-31T09:42:20;47.93;32.67;70.11;;
60503;Laerm;51448;51.660;5.824;2022-10-31T09:51:01;56.10;32.78;78.42;;
60503;Laerm;51448;51.660;5.824;2022-10-31T09:53:59;51.70;33.47;76.31;;
60503;Laerm;51448;51.660;5.824;2022-10-31T09:56:31;64.38;35.19;77.82;;
60503;Laerm;51448;51.660;5.824;2022-10-31T09:59:03;66.80;37.52;83.31;;
60503;Laerm;51448;51.660;5.824;2022-10-31T10:01:56;67.01;34.77;85.12;;
60503;Laerm;51448;51.660;5.824;2022-10-31T10:08:01;47.38;32.58;68.75;;
60503;Laerm;51448;51.660;5.824;2022-10-31T10:11:17;47.72;32.57;69.72;;
60503;Laerm;51448;51.660;5.824;2022-10-31T10:14:14;46.51;34.13;63.05;;
60503;Laerm;51448;51.660;5.824;2022-10-31T10:17:18;46.76;33.97;68.55;;
60503;Laerm;51448;51.660;5.824;2022-10-31T10:25:49;55.64;33.38;79.13;;
60503;Laerm;51448;51.660;5.824;2022-10-31T10:28:30;54.53;32.50;69.05;;
60503;Laerm;51448;51.660;5.824;2022-10-31T10:31:20;51.59;34.35;73.50;;
60503;Laerm;51448;51.660;5.824;2022-10-31T10:34:07;47.82;33.47;60.69;;
60503;Laerm;51448;51.660;5.824;2022-10-31T10:36:45;51.35;33.61;75.55;;
60503;Laerm;51448;51.660;5.824;2022-10-31T10:39:29;47.74;32.71;60.35;;
60503;Laerm;51448;51.660;5.824;2022-10-31T10:41:59;47.40;33.71;58.58;;
60503;Laerm;51448;51.660;5.824;2022-10-31T10:44:50;48.27;32.85;60.54;;
60503;Laerm;51448;51.660;5.824;2022-10-31T10:47:46;47.73;33.20;67.92;;
60503;Laerm;51448;51.660;5.824;2022-10-31T10:50:23;52.72;34.14;65.92;;
60503;Laerm;51448;51.660;5.824;2022-10-31T10:53:25;50.76;32.66;67.91;;
60503;Laerm;51448;51.660;5.824;2022-10-31T10:58:31;53.81;33.18;68.91;;
60503;Laerm;51448;51.660;5.824;2022-10-31T11:00:59;57.62;33.21;76.58;;
60503;Laerm;51448;51.660;5.824;2022-10-31T11:03:27;59.93;38.95;71.30;;
60503;Laerm;51448;51.660;5.824;2022-10-31T11:06:00;56.09;33.23;68.18;;
60503;Laerm;51448;51.660;5.824;2022-10-31T11:08:35;48.58;32.49;67.10;;
60503;Laerm;51448;51.660;5.824;2022-10-31T11:11:27;47.97;32.57;64.48;;
60503;Laerm;51448;51.660;5.824;2022-10-31T11:14:12;47.61;31.75;66.03;;
60503;Laerm;51448;51.660;5.824;2022-10-31T11:16:54;52.16;32.60;78.48;;
60503;Laerm;51448;51.660;5.824;2022-10-31T11:19:26;54.12;32.63;77.28;;
60503;Laerm;51448;51.660;5.824;2022-10-31T11:22:07;53.42;32.98;74.26;;
60503;Laerm;51448;51.660;5.824;2022-10-31T11:24:40;54.10;31.84;80.53;;
60503;Laerm;51448;51.660;5.824;2022-10-31T11:27:21;56.23;33.68;68.18;;
60503;Laerm;51448;51.660;5.824;2022-10-31T11:29:50;48.27;32.46;64.13;;
60503;Laerm;51448;51.660;5.824;2022-10-31T11:32:24;53.14;31.60;77.54;;
60503;Laerm;51448;51.660;5.824;2022-10-31T11:35:00;48.65;31.29;60.10;;
60503;Laerm;51448;51.660;5.824;2022-10-31T11:37:43;57.97;32.43;75.51;;
60503;Laerm;51448;51.660;5.824;2022-10-31T11:40:18;46.35;31.13;60.93;;
60503;Laerm;51448;51.660;5.824;2022-10-31T11:42:48;55.00;31.08;74.30;;
60503;Laerm;51448;51.660;5.824;2022-10-31T11:47:52;48.10;31.90;58.31;;
60503;Laerm;51448;51.660;5.824;2022-10-31T11:50:38;48.47;32.07;58.55;;
60503;Laerm;51448;51.660;5.824;2022-10-31T11:53:17;49.61;34.49;62.38;;
60503;Laerm;51448;51.660;5.824;2022-10-31T11:56:04;46.62;31.73;57.10;;
60503;Laerm;51448;51.660;5.824;2022-10-31T11:58:32;48.60;32.06;69.89;;
60503;Laerm;51448;51.660;5.824;2022-10-31T12:01:00;49.96;33.62;69.21;;
60503;Laerm;51448;51.660;5.824;2022-10-31T12:03:44;48.38;33.54;70.41;;
60503;Laerm;51448;51.660;5.824;2022-10-31T12:06:23;47.48;32.57;65.40;;
60503;Laerm;51448;51.660;5.824;2022-10-31T12:08:52;47.28;31.55;65.29;;
60503;Laerm;51448;51.660;5.824;2022-10-31T12:14:27;56.10;35.56;76.10;;
60503;Laerm;51448;51.660;5.824;2022-10-31T12:17:16;48.82;34.90;68.45;;
60503;Laerm;51448;51.660;5.824;2022-10-31T12:20:16;51.48;34.01;69.05;;
60503;Laerm;51448;51.660;5.824;2022-10-31T12:34:21;45.28;32.28;57.14;;
60503;Laerm;51448;51.660;5.824;2022-10-31T12:43:46;52.24;33.66;67.01;;
60503;Laerm;51448;51.660;5.824;2022-10-31T12:50:02;48.45;34.71;64.71;;
60503;Laerm;51448;51.660;5.824;2022-10-31T12:57:47;47.58;34.01;63.52;;
60503;Laerm;51448;51.660;5.824;2022-10-31T13:00:18;49.68;34.42;66.31;;
60503;Laerm;51448;51.660;5.824;2022-10-31T13:03:00;47.08;33.95;57.54;;
60503;Laerm;51448;51.660;5.824;2022-10-31T13:05:31;47.72;36.22;63.46;;
60503;Laerm;51448;51.660;5.824;2022-10-31T13:08:12;49.16;36.25;68.39;;
60503;Laerm;51448;51.660;5.824;2022-10-31T13:11:20;54.35;36.03;71.53;;
60503;Laerm;51448;51.660;5.824;2022-10-31T13:14:04;49.95;36.99;60.74;;
60503;Laerm;51448;51.660;5.824;2022-10-31T13:16:39;48.17;34.74;72.48;;
60503;Laerm;51448;51.660;5.824;2022-10-31T13:19:18;52.84;34.88;65.21;;
60503;Laerm;51448;51.660;5.824;2022-10-31T13:22:07;50.78;33.94;73.68;;
60503;Laerm;51448;51.660;5.824;2022-10-31T13:24:44;49.81;35.65;65.45;;
60503;Laerm;51448;51.660;5.824;2022-10-31T13:27:22;53.27;35.91;70.86;;
60503;Laerm;51448;51.660;5.824;2022-10-31T13:30:03;50.26;34.73;66.21;;
60503;Laerm;51448;51.660;5.824;2022-10-31T13:33:07;46.70;32.81;58.62;;
60503;Laerm;51448;51.660;5.824;2022-10-31T13:36:16;48.35;34.81;68.01;;
60503;Laerm;51448;51.660;5.824;2022-10-31T13:42:04;47.09;32.92;67.19;;
60503;Laerm;51448;51.660;5.824;2022-10-31T13:44:36;47.35;33.22;59.78;;
60503;Laerm;51448;51.660;5.824;2022-10-31T13:47:28;54.06;35.26;70.47;;
60503;Laerm;51448;51.660;5.824;2022-10-31T13:50:28;64.11;36.85;78.79;;
60503;Laerm;51448;51.660;5.824;2022-10-31T13:53:21;46.73;33.76;65.62;;
60503;Laerm;51448;51.660;5.824;2022-10-31T13:56:03;47.29;33.80;56.68;;
60503;Laerm;51448;51.660;5.824;2022-10-31T13:58:32;47.41;33.66;65.53;;
60503;Laerm;51448;51.660;5.824;2022-10-31T14:01:20;47.41;34.00;58.54;;
60503;Laerm;51448;51.660;5.824;2022-10-31T14:07:08;53.27;34.33;80.25;;
60503;Laerm;51448;51.660;5.824;2022-10-31T14:12:35;54.35;33.91;71.05;;
60503;Laerm;51448;51.660;5.824;2022-10-31T14:17:55;49.78;33.51;63.36;;
60503;Laerm;51448;51.660;5.824;2022-10-31T14:20:43;47.82;33.06;70.48;;
60503;Laerm;51448;51.660;5.824;2022-10-31T14:23:36;48.41;32.73;61.10;;
60503;Laerm;51448;51.660;5.824;2022-10-31T14:29:32;47.58;34.38;58.84;;
60503;Laerm;51448;51.660;5.824;2022-10-31T14:43:55;46.85;34.39;57.62;;
60503;Laerm;51448;51.660;5.824;2022-10-31T14:46:54;49.06;33.93;77.49;;
60503;Laerm;51448;51.660;5.824;2022-10-31T14:52:07;47.94;36.13;63.84;;
60503;Laerm;51448;51.660;5.824;2022-10-31T14:54:42;47.70;36.02;61.18;;
60503;Laerm;51448;51.660;5.824;2022-10-31T14:57:29;50.33;35.91;73.55;;
60503;Laerm;51448;51.660;5.824;2022-10-31T15:00:27;46.34;35.49;58.73;;
60503;Laerm;51448;51.660;5.824;2022-10-31T15:03:31;49.66;37.81;65.01;;
60503;Laerm;51448;51.660;5.824;2022-10-31T15:06:10;48.82;36.05;64.13;;
60503;Laerm;51448;51.660;5.824;2022-10-31T15:08:40;50.09;35.70;61.34;;
60503;Laerm;51448;51.660;5.824;2022-10-31T15:11:18;46.67;34.45;60.53;;
60503;Laerm;51448;51.660;5.824;2022-10-31T15:13:58;52.57;35.04;68.50;;
60503;Laerm;51448;51.660;5.824;2022-10-31T15:16:42;47.51;34.30;58.57;;
60503;Laerm;51448;51.660;5.824;2022-10-31T15:19:17;58.55;34.99;85.58;;
60503;Laerm;51448;51.660;5.824;2022-10-31T15:21:51;67.46;34.59;89.57;;
60503;Laerm;51448;51.660;5.824;2022-10-31T15:24:20;48.24;35.77;57.33;;
60503;Laerm;51448;51.660;5.824;2022-10-31T15:26:54;49.84;35.75;62.75;;
60503;Laerm;51448;51.660;5.824;2022-10-31T15:29:26;47.84;35.16;61.93;;
60503;Laerm;51448;51.660;5.824;2022-10-31T15:32:01;54.64;36.27;70.65;;
60503;Laerm;51448;51.660;5.824;2022-10-31T15:34:39;51.48;37.24;72.46;;
60503;Laerm;51448;51.660;5.824;2022-10-31T15:37:13;51.73;37.65;76.11;;
60503;Laerm;51448;51.660;5.824;2022-10-31T15:39:42;57.49;36.62;85.29;;
60503;Laerm;51448;51.660;5.824;2022-10-31T15:42:33;50.25;34.75;77.51;;
60503;Laerm;51448;51.660;5.824;2022-10-31T15:45:05;47.49;35.23;63.88;;
60503;Laerm;51448;51.660;5.824;2022-10-31T15:48:00;52.42;35.12;61.06;;
60503;Laerm;51448;51.660;5.824;2022-10-31T15:50:39;50.07;42.57;60.48;;
60503;Laerm;51448;51.660;5.824;2022-10-31T15:53:27;52.24;38.44;63.42;;
60503;Laerm;51448;51.660;5.824;2022-10-31T15:56:09;49.23;37.17;60.54;;
60503;Laerm;51448;51.660;5.824;2022-10-31T15:58:47;49.96;37.87;66.53;;
60503;Laerm;51448;51.660;5.824;2022-10-31T16:01:33;51.29;40.25;71.11;;
60503;Laerm;51448;51.660;5.824;2022-10-31T16:06:34;49.75;37.32;59.58;;
60503;Laerm;51448;51.660;5.824;2022-10-31T16:09:18;52.34;38.25;58.80;;
60503;Laerm;51448;51.660;5.824;2022-10-31T16:11:47;53.79;37.57;76.06;;
60503;Laerm;51448;51.660;5.824;2022-10-31T16:14:19;63.20;37.50;84.56;;
60503;Laerm;51448;51.660;5.824;2022-10-31T16:16:55;45.38;36.18;62.33;;
60503;Laerm;51448;51.660;5.824;2022-10-31T16:19:35;52.49;35.60;63.63;;
60503;Laerm;51448;51.660;5.824;2022-10-31T16:22:12;48.93;35.48;61.22;;